Latest Weather Observations for King Island Airport

IDT60801

Issued at 1:51 am EDT Wednesday 20 March 2019 (issued every 10 minutes, with the page automatically refreshed every 10 minutes)

About weather observations | Map of weather stations | Latest weather observations for TAS | Other Formats
Station Details ID: 098017 Name: KING ISLAND AIRPORT Lat: -39.88 Lon: 143.88 Height: 37.0 m
Data from the previous 72 hours. | See also: Recent months at King Island Airport
Date/Time
EDT
Temp
°C
App
Temp
°C
Dew
Point
°C
Rel
Hum
%
Delta-T
°C
Wind Press
QNH
hPa
Press
MSL
hPa
Rain since
9am
mm
Dir  Spd
km/h
Gust
km/h
Spd
kts
Gust
kts
20/01:30am 16.2 15.4 16.0 99 0.1 SSE 15 24 8 13 1017.0 1016.9 0.0
20/01:00am 16.3 15.8 16.0 98 0.2 SSE 13 19 7 10 1017.2 1017.1 0.0
20/12:31am 16.4 15.4 15.6 95 0.5 SSE 15 22 8 12 1017.6 1017.5 0.0
20/12:30am 16.4 15.3 15.4 94 0.6 SSE 15 22 8 12 1017.6 1017.5 0.0
20/12:08am 16.7 15.4 14.9 89 1.0 SSE 15 22 8 12 1017.7 1017.6 0.0
20/12:00am 16.6 15.3 14.8 89 1.0 SSE 15 20 8 11 1017.8 1017.7 0.0
 
Date/Time
EDT
Temp
°C
App
Temp
°C
Dew
Point
°C
Rel
Hum
%
Delta-T
°C
Wind Press
QNH
hPa
Press
MSL
hPa
Rain since
9am
mm
Dir  Spd
km/h
Gust
km/h
Spd
kts
Gust
kts
19/11:30pm 16.0 14.9 14.2 89 1.0 SSE 13 19 7 10 1018.0 1017.9 0.0
19/11:00pm 15.7 14.8 13.7 88 1.1 SE 11 15 6 8 1018.1 1018.0 0.0
19/10:30pm 15.9 14.6 13.6 86 1.3 SSE 13 19 7 10 1018.1 1018.0 0.0
19/10:00pm 16.2 14.7 13.1 82 1.7 SSE 13 17 7 9 1018.3 1018.2 0.0
19/09:30pm 16.7 14.7 12.8 78 2.2 SSE 15 24 8 13 1018.2 1018.1 0.0
19/09:00pm 16.9 14.4 12.4 75 2.5 SE 17 22 9 12 1018.1 1018.0 0.0
19/08:30pm 17.1 14.1 12.4 74 2.6 SSE 20 30 11 16 1017.7 1017.6 0.0
19/08:00pm 17.2 14.3 12.3 73 2.7 SSE 19 30 10 16 1017.7 1017.6 0.0
19/07:30pm 17.3 14.2 12.2 72 2.8 SE 20 30 11 16 1017.6 1017.5 0.0
19/07:00pm 17.9 15.0 12.4 70 3.0 SSE 19 30 10 16 1017.3 1017.2 0.0
19/06:30pm 18.8 16.1 13.6 72 3.0 SSE 20 28 11 15 1017.3 1017.2 0.0
19/06:00pm 19.3 16.8 14.1 72 3.0 SE 20 28 11 15 1017.3 1017.2 0.0
19/05:30pm 19.5 16.9 13.9 70 3.2 SSE 20 26 11 14 1017.2 1017.1 0.0
19/05:00pm 20.4 18.8 13.8 66 3.8 SSE 15 24 8 13 1017.3 1017.2 0.0
19/04:30pm 20.5 18.2 13.0 62 4.3 SSE 17 24 9 13 1017.4 1017.3 0.0
19/04:00pm 21.7 19.5 14.4 63 4.3 SSE 19 26 10 14 1017.6 1017.5 0.0
19/03:30pm 21.6 18.6 13.8 61 4.5 SE 22 30 12 16 1017.7 1017.6 0.0
19/03:00pm 21.6 18.9 13.5 60 4.7 SE 20 30 11 16 1017.7 1017.6 0.0
19/02:30pm 22.0 19.4 13.9 60 4.7 SE 20 28 11 15 1018.1 1018.0 0.0
19/02:00pm 22.2 18.9 14.1 60 4.7 SE 24 32 13 17 1018.4 1018.3 0.0
19/01:30pm 21.2 18.6 13.9 63 4.2 SE 20 32 11 17 1018.7 1018.6 0.0
19/01:00pm 21.1 18.2 14.0 64 4.1 SE 22 30 12 16 1019.0 1018.9 0.0
19/12:30pm 20.5 17.5 13.7 65 3.9 ESE 22 32 12 17 1019.3 1019.2 0.0
19/12:00pm 20.3 16.8 13.5 65 3.9 SE 24 35 13 19 1019.5 1019.4 0.0
19/11:30am 20.5 17.3 13.2 63 4.2 ESE 22 32 12 17 1019.7 1019.6 0.0
19/11:00am 20.0 16.9 14.6 71 3.1 SE 24 33 13 18 1019.6 1019.5 0.0
19/10:30am 19.1 15.7 14.8 76 2.5 SE 26 32 14 17 1019.7 1019.6 0.0
19/10:00am 18.5 16.3 15.0 80 2.0 SE 20 28 11 15 1019.7 1019.6 0.0
19/09:30am 18.1 16.6 15.4 84 1.6 SE 17 24 9 13 1019.6 1019.5 0.0
19/09:00am 17.6 17.4 15.6 88 1.2 SE 11 17 6 9 1019.4 1019.3 0.0
19/08:30am 17.2 16.8 15.2 88 1.2 SE 11 17 6 9 1019.2 1019.1 0.0
19/08:06am 17.1 16.4 15.3 89 1.0 SE 13 15 7 8 1019.1 1019.0 0.0
19/08:00am 17.0 16.3 15.3 90 1.0 ESE 13 17 7 9 1019.1 1019.0 0.0
19/07:38am 16.9 16.1 15.2 90 1.0 ESE 13 17 7 9 1018.8 1018.7 0.0
19/07:30am 16.9 15.8 15.2 90 1.0 ESE 15 19 8 10 1018.8 1018.7 0.0
19/07:00am 16.7 15.5 15.1 90 0.9 ESE 15 20 8 11 1018.4 1018.3 0.0
19/06:30am 16.5 15.4 15.4 93 0.6 ESE 15 20 8 11 1018.3 1018.2 0.0
19/06:23am 16.5 15.1 15.5 94 0.6 SE 17 24 9 13 1018.3 1018.2 0.0
19/06:17am 16.5 16.4 15.9 96 0.4 ESE 11 19 6 10 1018.2 1018.1 0.0
19/06:01am 16.6 15.3 15.8 95 0.5 E 17 22 9 12 1018.2 1018.1 0.0
19/06:00am 16.7 15.4 15.9 95 0.5 E 17 22 9 12 1018.2 1018.1 0.0
19/05:55am 16.7 15.0 15.7 94 0.6 E 19 26 10 14 1018.2 1018.1 0.0
19/05:30am 16.7 15.7 15.7 94 0.6 ESE 15 19 8 10 1018.2 1018.1 0.0
19/05:00am 16.7 15.8 15.9 95 0.5 ESE 15 19 8 10 1018.1 1018.0 0.0
19/04:30am 16.4 15.4 15.6 95 0.5 ESE 15 19 8 10 1018.0 1017.9 0.0
19/04:03am 16.2 15.1 15.4 95 0.5 ESE 15 19 8 10 1018.2 1018.1 0.0
19/04:00am 16.2 15.1 15.4 95 0.5 ESE 15 19 8 10 1018.2 1018.1 0.0
19/03:30am 16.3 15.3 15.7 96 0.4 E 15 20 8 11 1018.3 1018.2 0.0
19/03:00am 16.1 15.4 15.3 95 0.5 ESE 13 17 7 9 1018.5 1018.4 0.0
19/02:30am 16.5 15.9 15.7 95 0.5 ESE 13 15 7 8 1018.7 1018.6 0.0
19/02:00am 16.0 14.9 15.4 96 0.3 SE 15 20 8 11 1018.9 1018.8 0.0
19/01:46am 15.6 15.1 15.0 96 0.3 ESE 11 15 6 8 1018.9 1018.8 0.0
19/01:30am 15.8 15.4 15.3 97 0.3 SE 11 15 6 8 1019.2 1019.1 0.0
19/01:00am 15.2 14.2 14.7 97 0.3 SE 13 15 7 8 1019.2 1019.1 0.0
19/12:30am 15.1 14.5 14.5 96 0.3 SE 11 13 6 7 1019.4 1019.3 0.0
19/12:00am 14.8 14.1 14.2 96 0.3 SE 11 13 6 7 1019.5 1019.4 0.0
 
Date/Time
EDT
Temp
°C
App
Temp
°C
Dew
Point
°C
Rel
Hum
%
Delta-T
°C
Wind Press
QNH
hPa
Press
MSL
hPa
Rain since
9am
mm
Dir  Spd
km/h
Gust
km/h
Spd
kts
Gust
kts
18/11:30pm 14.5 13.6 13.7 95 0.4 SE 11 13 6 7 1019.7 1019.6 0.0
18/11:00pm 14.2 12.7 13.1 93 0.6 SSE 13 15 7 8 1019.8 1019.7 0.0
18/10:30pm 15.5 14.4 14.4 93 0.6 ESE 13 17 7 9 1019.9 1019.8 0.0
18/10:00pm 15.7 14.7 14.6 93 0.6 ESE 13 17 7 9 1019.8 1019.7 0.0
18/09:30pm 15.7 14.2 14.2 91 0.9 ESE 15 17 8 9 1019.8 1019.7 0.0
18/09:00pm 15.8 14.7 14.2 90 0.9 ESE 13 15 7 8 1019.7 1019.6 0.0
18/08:30pm 16.5 15.1 14.5 88 1.1 ESE 15 19 8 10 1019.6 1019.5 0.0
18/08:00pm 17.1 14.9 14.4 84 1.5 E 19 26 10 14 1019.3 1019.2 0.0
18/07:30pm 17.9 14.8 14.6 81 1.9 E 24 32 13 17 1019.1 1019.0 0.0
18/07:00pm 18.5 15.5 14.8 79 2.1 E 24 32 13 17 1019.0 1018.9 0.0
18/06:30pm 19.1 15.4 15.0 77 2.4 E 28 41 15 22 1018.8 1018.7 0.0
18/06:00pm 19.9 16.1 15.7 77 2.5 E 30 37 16 20 1018.7 1018.6 0.0
18/05:30pm 19.8 16.3 15.4 76 2.6 E 28 37 15 20 1018.8 1018.7 0.0
18/05:00pm 21.1 17.4 15.9 72 3.1 E 30 39 16 21 1018.8 1018.7 0.0
18/04:30pm 21.0 17.5 15.5 71 3.3 E 28 35 15 19 1019.0 1018.9 0.0
18/04:00pm 20.7 17.3 15.7 73 3.0 E 28 37 15 20 1019.2 1019.1 0.0
18/03:30pm 21.7 17.4 15.3 67 3.8 E 32 39 17 21 1019.2 1019.1 0.0
18/03:00pm 21.0 17.3 16.0 73 3.0 E 30 37 16 20 1019.5 1019.4 0.0
18/02:30pm 21.4 18.0 15.7 70 3.4 ESE 28 35 15 19 1019.8 1019.7 0.0
18/02:00pm 21.8 17.6 15.6 68 3.7 ENE 32 37 17 20 1020.0 1019.9 0.0
18/01:30pm 21.1 16.6 15.0 68 3.6 E 32 43 17 23 1020.2 1020.1 0.0
18/01:00pm 20.9 16.3 15.0 69 3.5 E 33 41 18 22 1020.4 1020.3 0.0
18/12:30pm 20.4 14.8 14.5 69 3.4 E 37 46 20 25 1020.4 1020.3 0.0
18/12:00pm 19.8 14.3 13.5 67 3.6 E 35 43 19 23 1020.4 1020.3 0.0
18/11:30am 19.6 14.2 14.0 70 3.2 E 35 48 19 26 1020.6 1020.5 0.0
18/11:00am 19.2 14.1 13.8 71 3.1 E 33 43 18 23 1020.8 1020.7 0.0
18/10:30am 20.7 16.2 15.0 70 3.4 E 32 43 17 23 1020.8 1020.7 0.0
18/10:00am 19.2 14.8 15.1 77 2.4 E 32 41 17 22 1020.8 1020.7 0.0
18/09:30am 19.0 15.2 15.7 81 2.0 E 30 37 16 20 1021.0 1020.9 0.0
18/09:00am 18.1 16.3 16.1 88 1.2 ESE 20 30 11 16 1021.0 1020.9 0.0
18/08:30am 16.8 15.5 15.7 93 0.6 E 17 24 9 13 1020.8 1020.7 0.0
18/08:00am 15.9 14.7 15.1 95 0.5 ESE 15 20 8 11 1020.7 1020.6 0.0
18/07:30am 15.6 14.7 14.8 95 0.5 ESE 13 19 7 10 1020.7 1020.6 0.0
18/07:00am 15.8 14.6 15.0 95 0.5 ESE 15 19 8 10 1020.7 1020.6 0.0
18/06:47am 15.8 15.0 15.2 96 0.3 ESE 13 17 7 9 1020.7 1020.6 0.0
18/06:30am 15.5 14.2 14.9 96 0.3 ESE 15 15 8 8 1020.4 1020.3 0.0
18/06:00am 15.6 15.1 14.8 95 0.5 ESE 11 17 6 9 1020.4 1020.3 0.0
18/05:40am 15.8 15.7 15.0 95 0.5 ESE 9 13 5 7 1020.3 1020.2 0.0
18/05:30am 15.7 15.6 14.9 95 0.5 ESE 9 13 5 7 1020.2 1020.1 0.0
18/05:00am 16.0 15.2 15.2 95 0.5 E 13 17 7 9 1019.9 1019.8 0.0
18/04:30am 16.4 14.4 15.6 95 0.5 E 20 30 11 16 1019.5 1019.4 0.0
18/04:23am 16.4 14.4 15.6 95 0.5 E 20 30 11 16 1019.6 1019.5 0.0
18/04:00am 16.8 14.9 15.8 94 0.6 ESE 20 28 11 15 1019.7 1019.6 0.0
18/03:30am 17.1 15.4 15.8 92 0.8 ESE 19 28 10 15 1020.0 1019.9 0.0
18/03:00am 17.3 15.1 16.0 92 0.8 E 22 32 12 17 1020.1 1020.0 0.0
18/02:30am 17.3 14.0 16.0 92 0.8 ESE 28 35 15 19 1020.3 1020.2 0.0
18/02:00am 16.9 15.1 16.1 95 0.5 ESE 20 26 11 14 1020.4 1020.3 0.0
18/01:40am 16.5 14.8 15.7 95 0.5 ESE 19 26 10 14 1020.4 1020.3 0.0
18/01:30am 16.7 14.1 15.9 95 0.5 ESE 24 33 13 18 1020.5 1020.4 0.0
18/01:00am 16.3 14.9 15.5 95 0.5 ESE 17 24 9 13 1020.5 1020.4 0.0
18/12:30am 16.6 15.2 15.5 93 0.6 SE 17 24 9 13 1020.6 1020.5 0.0
18/12:00am 16.8 15.4 15.5 92 0.8 SE 17 20 9 11 1020.8 1020.7 0.0
 
Date/Time
EDT
Temp
°C
App
Temp
°C
Dew
Point
°C
Rel
Hum
%
Delta-T
°C
Wind Press
QNH
hPa
Press
MSL
hPa
Rain since
9am
mm
Dir  Spd
km/h
Gust
km/h
Spd
kts
Gust
kts
17/11:30pm 16.5 15.7 15.2 92 0.8 SSE 13 19 7 10 1021.0 1020.9 0.0
17/11:00pm 16.9 15.9 14.7 87 1.3 SE 13 19 7 10 1021.1 1021.0 0.0
17/10:30pm 17.4 15.8 15.0 86 1.4 E 17 24 9 13 1021.1 1021.0 0.0
17/10:00pm 18.1 15.9 14.8 81 1.9 ESE 20 28 11 15 1020.9 1020.8 0.0
17/09:30pm 18.2 16.1 14.7 80 2.0 ESE 19 28 10 15 1020.8 1020.7 0.0
17/09:00pm 18.1 15.5 14.8 81 1.9 ESE 22 33 12 18 1020.3 1020.2 0.0
17/08:30pm 18.1 15.1 14.8 81 1.9 ESE 24 32 13 17 1020.0 1019.9 0.0
17/08:00pm 18.2 14.9 14.9 81 1.9 ESE 26 33 14 18 1019.9 1019.8 0.0
17/07:30pm 18.2 15.6 14.9 81 1.9 ESE 22 35 12 19 1019.8 1019.7 0.0
17/07:00pm 18.5 14.8 15.0 80 2.0 ESE 28 39 15 21 1019.7 1019.6 0.0
17/06:30pm 18.9 14.8 15.0 78 2.3 E 30 41 16 22 1019.5 1019.4 0.0
17/06:00pm 19.2 14.3 15.3 78 2.3 E 35 50 19 27 1019.2 1019.1 0.0
17/05:30pm 19.3 14.5 15.6 79 2.2 E 35 46 19 25 1018.9 1018.8 0.0
17/05:00pm 19.2 14.9 15.5 79 2.2 ESE 32 39 17 21 1019.4 1019.3 0.0
17/04:43pm 19.3 15.8 15.6 79 2.2 ESE 28 39 15 21 1019.6 1019.5 0.0
17/04:30pm 19.2 15.3 15.5 79 2.2 E 30 44 16 24 1019.6 1019.5 0.0
17/04:00pm 19.7 16.0 16.0 79 2.2 E 30 39 16 21 1019.6 1019.5 0.0
17/03:30pm 19.8 15.0 15.7 77 2.4 E 35 50 19 27 1019.5 1019.4 0.0
17/03:00pm 20.0 14.9 15.8 77 2.5 E 37 48 20 26 1019.4 1019.3 0.0
17/02:30pm 19.5 14.8 15.8 79 2.2 E 35 48 19 26 1019.9 1019.8 0.0
17/02:00pm 19.6 15.3 15.9 79 2.2 E 33 44 18 24 1020.0 1019.9 0.0
17/01:36pm 20.1 15.2 16.3 79 2.3 E 37 50 20 27 1019.9 1019.8 0.0
17/01:30pm 20.0 15.4 16.2 79 2.3 E 35 44 19 24 1019.9 1019.8 0.0
17/01:00pm 19.8 15.1 15.9 78 2.3 E 35 44 19 24 1020.2 1020.1 0.0
17/12:54pm 19.5 14.8 15.8 79 2.2 E 35 44 19 24 1020.3 1020.2 0.0
17/12:30pm 19.5 15.2 15.8 79 2.2 E 33 46 18 25 1020.4 1020.3 0.0
17/12:11pm 19.7 14.7 16.2 80 2.1 E 37 48 20 26 1020.4 1020.3 0.0
17/12:00pm 19.9 15.9 16.2 79 2.2 E 32 41 17 22 1020.5 1020.4 0.0
17/11:30am 19.4 15.0 15.7 79 2.2 E 33 46 18 25 1020.8 1020.7 0.0
17/11:00am 19.0 14.8 15.7 81 1.9 E 32 41 17 22 1021.2 1021.1 0.0
17/10:41am 18.7 14.0 15.8 83 1.7 E 35 44 19 24 1021.2 1021.1 0.0
17/10:30am 18.7 15.3 15.8 83 1.7 E 28 39 15 21 1021.3 1021.2 0.0
17/10:00am 18.6 15.7 16.0 85 1.5 E 26 37 14 20 1021.3 1021.2 0.0
17/09:55am 18.6 15.3 16.0 85 1.5 E 28 37 15 20 1021.2 1021.1 0.0
17/09:30am 18.1 15.2 16.1 88 1.2 E 26 35 14 19 1021.0 1020.9 0.0
17/09:00am 18.2 14.5 16.0 87 1.3 E 30 44 16 24 1020.8 1020.7 0.0
17/08:57am 18.2 14.5 16.0 87 1.3 E 30 48 16 26 1020.8 1020.7 0.0
17/08:30am 18.1 14.4 15.9 87 1.3 E 30 41 16 22 1020.7 1020.6 0.0
17/08:00am 17.9 14.2 15.9 88 1.2 E 30 39 16 21 1020.5 1020.4 0.0
17/07:30am 17.8 14.1 16.0 89 1.1 E 30 39 16 21 1020.3 1020.2 0.0
17/07:00am 17.8 13.5 15.8 88 1.2 E 33 46 18 25 1020.0 1019.9 0.0
17/06:30am 17.7 13.5 15.7 88 1.2 E 32 43 17 23 1019.6 1019.5 0.0
17/06:00am 17.6 12.9 15.9 90 1.0 E 35 43 19 23 1019.6 1019.5 0.0
17/05:30am 17.5 13.3 15.8 90 1.0 E 32 41 17 22 1019.5 1019.4 0.0
17/05:00am 17.6 13.4 15.8 89 1.1 ENE 32 43 17 23 1019.5 1019.4 0.0
17/04:30am 17.6 12.9 15.9 90 1.0 ENE 35 50 19 27 1019.4 1019.3 0.0
17/04:00am 17.7 13.0 15.9 89 1.1 E 35 50 19 27 1019.3 1019.2 0.0
17/03:30am 17.7 13.0 15.9 89 1.1 E 35 46 19 25 1019.6 1019.5 0.0
17/03:03am 17.7 13.4 16.0 90 1.0 E 33 48 18 26 1019.6 1019.5 0.0
17/03:00am 17.6 13.3 15.9 90 1.0 E 33 48 18 26 1019.6 1019.5 0.0
17/02:30am 17.6 12.9 15.9 90 1.0 ENE 35 46 19 25 1020.0 1019.9 0.0
17/02:00am 17.4 13.3 15.9 91 0.9 ENE 32 41 17 22 1020.2 1020.1 0.0

Other formats

Comma delimited format used in spreadsheet applications
http://www.bom.gov.au/fwo/IDT60801/IDT60801.94850.axf

JavaScript Object Notation format (JSON) in row-major order
http://www.bom.gov.au/fwo/IDT60801/IDT60801.94850.json

Data quality

Most of these data are generated automatically and are frequently updated. Quality checks on data are not normally performed. It is possible for incorrect values to appear. Refer to information at About Latest Weather Observations and please check the disclaimer before using these data.